sensor_id;sensor_type;location;lat;lon;timestamp;P1;durP1;ratioP1;P2;durP2;ratioP2
8716;SDS011;4395;48.554;8.820;2023-07-24T00:01:53;7.67;;;6.87;;
8716;SDS011;4395;48.554;8.820;2023-07-24T00:03:57;7.40;;;6.40;;
8716;SDS011;4395;48.554;8.820;2023-07-24T00:06:01;8.57;;;6.73;;
8716;SDS011;4395;48.554;8.820;2023-07-24T00:08:03;8.00;;;7.13;;
8716;SDS011;4395;48.554;8.820;2023-07-24T00:10:07;7.57;;;6.50;;
8716;SDS011;4395;48.554;8.820;2023-07-24T00:12:11;8.13;;;7.10;;
8716;SDS011;4395;48.554;8.820;2023-07-24T00:14:15;7.90;;;7.07;;
8716;SDS011;4395;48.554;8.820;2023-07-24T00:16:17;10.53;;;7.00;;
8716;SDS011;4395;48.554;8.820;2023-07-24T00:18:19;7.47;;;6.77;;
8716;SDS011;4395;48.554;8.820;2023-07-24T00:20:24;10.30;;;7.27;;
8716;SDS011;4395;48.554;8.820;2023-07-24T00:22:27;7.50;;;6.70;;
8716;SDS011;4395;48.554;8.820;2023-07-24T00:24:30;7.67;;;6.87;;
8716;SDS011;4395;48.554;8.820;2023-07-24T00:26:32;8.53;;;7.63;;
8716;SDS011;4395;48.554;8.820;2023-07-24T00:28:36;9.20;;;7.50;;
8716;SDS011;4395;48.554;8.820;2023-07-24T00:30:39;8.47;;;7.13;;
8716;SDS011;4395;48.554;8.820;2023-07-24T00:32:42;9.93;;;7.27;;
8716;SDS011;4395;48.554;8.820;2023-07-24T00:34:44;8.27;;;7.10;;
8716;SDS011;4395;48.554;8.820;2023-07-24T00:36:49;12.87;;;9.37;;
8716;SDS011;4395;48.554;8.820;2023-07-24T00:38:50;11.13;;;9.93;;
8716;SDS011;4395;48.554;8.820;2023-07-24T00:40:53;15.23;;;11.90;;
8716;SDS011;4395;48.554;8.820;2023-07-24T00:42:56;10.83;;;9.47;;
8716;SDS011;4395;48.554;8.820;2023-07-24T00:44:59;11.13;;;8.40;;
8716;SDS011;4395;48.554;8.820;2023-07-24T00:47:06;11.03;;;9.77;;
8716;SDS011;4395;48.554;8.820;2023-07-24T00:49:08;9.63;;;7.73;;
8716;SDS011;4395;48.554;8.820;2023-07-24T00:51:11;8.67;;;7.77;;
8716;SDS011;4395;48.554;8.820;2023-07-24T00:53:15;8.30;;;7.40;;
8716;SDS011;4395;48.554;8.820;2023-07-24T00:55:19;9.40;;;8.40;;
8716;SDS011;4395;48.554;8.820;2023-07-24T00:57:24;10.07;;;9.07;;
8716;SDS011;4395;48.554;8.820;2023-07-24T00:59:27;8.23;;;7.43;;
8716;SDS011;4395;48.554;8.820;2023-07-24T01:01:30;8.60;;;7.60;;
8716;SDS011;4395;48.554;8.820;2023-07-24T01:03:34;8.90;;;7.70;;
8716;SDS011;4395;48.554;8.820;2023-07-24T01:05:38;8.93;;;7.90;;
8716;SDS011;4395;48.554;8.820;2023-07-24T01:07:42;12.03;;;10.23;;
8716;SDS011;4395;48.554;8.820;2023-07-24T01:09:46;8.53;;;7.50;;
8716;SDS011;4395;48.554;8.820;2023-07-24T01:11:54;11.40;;;7.90;;
8716;SDS011;4395;48.554;8.820;2023-07-24T01:14:02;10.57;;;9.17;;
8716;SDS011;4395;48.554;8.820;2023-07-24T01:16:13;8.67;;;7.83;;
8716;SDS011;4395;48.554;8.820;2023-07-24T01:18:17;9.03;;;8.10;;
8716;SDS011;4395;48.554;8.820;2023-07-24T01:20:21;9.27;;;8.10;;
8716;SDS011;4395;48.554;8.820;2023-07-24T01:22:30;9.63;;;7.03;;
8716;SDS011;4395;48.554;8.820;2023-07-24T01:24:49;8.30;;;7.37;;
8716;SDS011;4395;48.554;8.820;2023-07-24T01:27:03;9.37;;;7.20;;
8716;SDS011;4395;48.554;8.820;2023-07-24T01:29:06;9.23;;;7.20;;
8716;SDS011;4395;48.554;8.820;2023-07-24T01:31:09;9.63;;;7.10;;
8716;SDS011;4395;48.554;8.820;2023-07-24T01:33:13;10.03;;;7.73;;
8716;SDS011;4395;48.554;8.820;2023-07-24T01:35:20;8.90;;;7.43;;
8716;SDS011;4395;48.554;8.820;2023-07-24T01:37:24;7.70;;;6.90;;
8716;SDS011;4395;48.554;8.820;2023-07-24T01:39:28;8.40;;;7.43;;
8716;SDS011;4395;48.554;8.820;2023-07-24T01:41:31;11.87;;;7.93;;
8716;SDS011;4395;48.554;8.820;2023-07-24T01:43:35;8.70;;;7.80;;
8716;SDS011;4395;48.554;8.820;2023-07-24T01:45:38;11.37;;;7.00;;
8716;SDS011;4395;48.554;8.820;2023-07-24T01:47:40;7.70;;;6.93;;
8716;SDS011;4395;48.554;8.820;2023-07-24T01:49:43;7.90;;;6.97;;
8716;SDS011;4395;48.554;8.820;2023-07-24T01:51:46;8.73;;;7.10;;
8716;SDS011;4395;48.554;8.820;2023-07-24T01:53:48;8.87;;;7.30;;
8716;SDS011;4395;48.554;8.820;2023-07-24T01:55:51;9.40;;;7.07;;
8716;SDS011;4395;48.554;8.820;2023-07-24T01:57:54;8.53;;;7.10;;
8716;SDS011;4395;48.554;8.820;2023-07-24T01:59:58;10.60;;;7.93;;
8716;SDS011;4395;48.554;8.820;2023-07-24T02:02:01;8.83;;;7.70;;
8716;SDS011;4395;48.554;8.820;2023-07-24T02:04:04;7.80;;;7.00;;
8716;SDS011;4395;48.554;8.820;2023-07-24T02:06:07;10.03;;;8.50;;
8716;SDS011;4395;48.554;8.820;2023-07-24T02:08:10;10.03;;;7.57;;
8716;SDS011;4395;48.554;8.820;2023-07-24T02:10:11;8.93;;;7.93;;
8716;SDS011;4395;48.554;8.820;2023-07-24T02:12:14;9.50;;;7.60;;
8716;SDS011;4395;48.554;8.820;2023-07-24T02:14:17;9.00;;;7.80;;
8716;SDS011;4395;48.554;8.820;2023-07-24T02:16:23;11.50;;;9.20;;
8716;SDS011;4395;48.554;8.820;2023-07-24T02:18:29;11.37;;;9.43;;
8716;SDS011;4395;48.554;8.820;2023-07-24T02:20:32;11.80;;;10.43;;
8716;SDS011;4395;48.554;8.820;2023-07-24T02:22:35;11.83;;;9.67;;
8716;SDS011;4395;48.554;8.820;2023-07-24T02:24:39;9.53;;;7.70;;
8716;SDS011;4395;48.554;8.820;2023-07-24T02:26:43;11.30;;;8.87;;
8716;SDS011;4395;48.554;8.820;2023-07-24T02:28:45;8.93;;;7.63;;
8716;SDS011;4395;48.554;8.820;2023-07-24T02:30:50;9.53;;;7.40;;
8716;SDS011;4395;48.554;8.820;2023-07-24T02:33:01;8.23;;;7.30;;
8716;SDS011;4395;48.554;8.820;2023-07-24T02:35:04;8.70;;;7.47;;
8716;SDS011;4395;48.554;8.820;2023-07-24T02:37:08;9.93;;;7.83;;
8716;SDS011;4395;48.554;8.820;2023-07-24T02:39:11;10.60;;;8.13;;
8716;SDS011;4395;48.554;8.820;2023-07-24T02:41:14;9.17;;;7.73;;
8716;SDS011;4395;48.554;8.820;2023-07-24T02:43:17;9.97;;;7.93;;
8716;SDS011;4395;48.554;8.820;2023-07-24T02:45:20;8.57;;;7.67;;
8716;SDS011;4395;48.554;8.820;2023-07-24T02:47:24;9.27;;;7.57;;
8716;SDS011;4395;48.554;8.820;2023-07-24T02:49:28;8.93;;;7.60;;
8716;SDS011;4395;48.554;8.820;2023-07-24T02:51:32;9.33;;;7.60;;
8716;SDS011;4395;48.554;8.820;2023-07-24T02:53:35;9.50;;;7.90;;
8716;SDS011;4395;48.554;8.820;2023-07-24T02:55:41;8.80;;;7.50;;
8716;SDS011;4395;48.554;8.820;2023-07-24T02:57:44;8.63;;;7.73;;
8716;SDS011;4395;48.554;8.820;2023-07-24T02:59:47;8.30;;;7.10;;
8716;SDS011;4395;48.554;8.820;2023-07-24T03:01:50;9.27;;;7.80;;
8716;SDS011;4395;48.554;8.820;2023-07-24T03:03:53;10.63;;;8.23;;
8716;SDS011;4395;48.554;8.820;2023-07-24T03:05:56;9.77;;;8.60;;
8716;SDS011;4395;48.554;8.820;2023-07-24T03:07:59;13.33;;;7.97;;
8716;SDS011;4395;48.554;8.820;2023-07-24T03:10:04;8.43;;;7.53;;
8716;SDS011;4395;48.554;8.820;2023-07-24T03:12:09;13.30;;;7.70;;
8716;SDS011;4395;48.554;8.820;2023-07-24T03:14:12;8.87;;;7.63;;
8716;SDS011;4395;48.554;8.820;2023-07-24T03:16:15;13.00;;;8.00;;
8716;SDS011;4395;48.554;8.820;2023-07-24T03:18:18;10.43;;;8.00;;
8716;SDS011;4395;48.554;8.820;2023-07-24T03:20:21;10.77;;;8.07;;
8716;SDS011;4395;48.554;8.820;2023-07-24T03:22:25;10.10;;;7.73;;
8716;SDS011;4395;48.554;8.820;2023-07-24T03:24:28;8.93;;;8.00;;
8716;SDS011;4395;48.554;8.820;2023-07-24T03:26:31;10.77;;;8.07;;
8716;SDS011;4395;48.554;8.820;2023-07-24T03:28:34;11.57;;;7.67;;
8716;SDS011;4395;48.554;8.820;2023-07-24T03:30:37;10.30;;;7.17;;
8716;SDS011;4395;48.554;8.820;2023-07-24T03:32:40;8.07;;;6.97;;
8716;SDS011;4395;48.554;8.820;2023-07-24T03:34:43;8.70;;;7.63;;
8716;SDS011;4395;48.554;8.820;2023-07-24T03:36:46;9.77;;;8.00;;
8716;SDS011;4395;48.554;8.820;2023-07-24T03:38:50;9.90;;;8.30;;
8716;SDS011;4395;48.554;8.820;2023-07-24T03:40:53;11.77;;;8.47;;
8716;SDS011;4395;48.554;8.820;2023-07-24T03:42:56;14.40;;;9.40;;
8716;SDS011;4395;48.554;8.820;2023-07-24T03:44:59;10.03;;;7.80;;
8716;SDS011;4395;48.554;8.820;2023-07-24T03:47:02;10.17;;;7.93;;
8716;SDS011;4395;48.554;8.820;2023-07-24T03:49:05;12.73;;;8.17;;
8716;SDS011;4395;48.554;8.820;2023-07-24T03:51:08;9.17;;;7.37;;
8716;SDS011;4395;48.554;8.820;2023-07-24T03:53:11;10.70;;;7.47;;
8716;SDS011;4395;48.554;8.820;2023-07-24T03:55:14;10.83;;;7.60;;
8716;SDS011;4395;48.554;8.820;2023-07-24T03:57:17;11.53;;;8.20;;
8716;SDS011;4395;48.554;8.820;2023-07-24T03:59:20;8.70;;;7.60;;
8716;SDS011;4395;48.554;8.820;2023-07-24T04:01:23;12.87;;;7.97;;
8716;SDS011;4395;48.554;8.820;2023-07-24T04:03:26;8.83;;;7.10;;
8716;SDS011;4395;48.554;8.820;2023-07-24T04:05:29;9.90;;;8.63;;
8716;SDS011;4395;48.554;8.820;2023-07-24T04:07:31;10.00;;;8.10;;
8716;SDS011;4395;48.554;8.820;2023-07-24T04:09:34;9.40;;;7.50;;
8716;SDS011;4395;48.554;8.820;2023-07-24T04:11:38;9.60;;;7.30;;
8716;SDS011;4395;48.554;8.820;2023-07-24T04:13:41;7.87;;;6.83;;
8716;SDS011;4395;48.554;8.820;2023-07-24T04:15:44;9.87;;;7.27;;
8716;SDS011;4395;48.554;8.820;2023-07-24T04:17:47;9.73;;;7.43;;
8716;SDS011;4395;48.554;8.820;2023-07-24T04:19:49;8.40;;;7.00;;
8716;SDS011;4395;48.554;8.820;2023-07-24T04:21:52;10.23;;;6.50;;
8716;SDS011;4395;48.554;8.820;2023-07-24T04:23:54;8.97;;;7.50;;
8716;SDS011;4395;48.554;8.820;2023-07-24T04:25:57;10.33;;;7.20;;
8716;SDS011;4395;48.554;8.820;2023-07-24T04:28:01;12.67;;;8.10;;
8716;SDS011;4395;48.554;8.820;2023-07-24T04:30:04;10.50;;;7.93;;
8716;SDS011;4395;48.554;8.820;2023-07-24T04:32:08;11.23;;;8.10;;
8716;SDS011;4395;48.554;8.820;2023-07-24T04:34:11;9.63;;;7.87;;
8716;SDS011;4395;48.554;8.820;2023-07-24T04:36:14;11.00;;;7.40;;
8716;SDS011;4395;48.554;8.820;2023-07-24T04:38:18;11.43;;;7.57;;
8716;SDS011;4395;48.554;8.820;2023-07-24T04:40:21;10.30;;;7.83;;
8716;SDS011;4395;48.554;8.820;2023-07-24T04:42:24;11.10;;;7.83;;
8716;SDS011;4395;48.554;8.820;2023-07-24T04:44:28;8.43;;;7.13;;
8716;SDS011;4395;48.554;8.820;2023-07-24T04:46:30;8.77;;;7.53;;
8716;SDS011;4395;48.554;8.820;2023-07-24T04:48:33;11.07;;;7.53;;
8716;SDS011;4395;48.554;8.820;2023-07-24T04:50:36;12.57;;;8.00;;
8716;SDS011;4395;48.554;8.820;2023-07-24T04:52:39;10.13;;;7.97;;
8716;SDS011;4395;48.554;8.820;2023-07-24T04:54:41;9.07;;;6.60;;
8716;SDS011;4395;48.554;8.820;2023-07-24T04:56:43;10.97;;;7.33;;
8716;SDS011;4395;48.554;8.820;2023-07-24T04:58:46;8.60;;;7.53;;
8716;SDS011;4395;48.554;8.820;2023-07-24T05:00:50;9.27;;;7.17;;
8716;SDS011;4395;48.554;8.820;2023-07-24T05:02:53;9.90;;;7.60;;
8716;SDS011;4395;48.554;8.820;2023-07-24T05:04:56;9.93;;;7.87;;
8716;SDS011;4395;48.554;8.820;2023-07-24T05:06:58;9.63;;;7.17;;
8716;SDS011;4395;48.554;8.820;2023-07-24T05:09:01;11.07;;;7.27;;
8716;SDS011;4395;48.554;8.820;2023-07-24T05:11:04;10.90;;;7.93;;
8716;SDS011;4395;48.554;8.820;2023-07-24T05:13:07;9.50;;;7.47;;
8716;SDS011;4395;48.554;8.820;2023-07-24T05:15:13;8.10;;;7.20;;
8716;SDS011;4395;48.554;8.820;2023-07-24T05:17:19;12.37;;;7.50;;
8716;SDS011;4395;48.554;8.820;2023-07-24T05:19:22;9.53;;;7.27;;
8716;SDS011;4395;48.554;8.820;2023-07-24T05:21:24;13.83;;;8.30;;
8716;SDS011;4395;48.554;8.820;2023-07-24T05:23:27;9.97;;;7.20;;
8716;SDS011;4395;48.554;8.820;2023-07-24T05:25:30;10.67;;;8.07;;
8716;SDS011;4395;48.554;8.820;2023-07-24T05:27:33;9.20;;;7.53;;
8716;SDS011;4395;48.554;8.820;2023-07-24T05:29:36;12.47;;;7.83;;
8716;SDS011;4395;48.554;8.820;2023-07-24T05:31:39;10.83;;;7.80;;
8716;SDS011;4395;48.554;8.820;2023-07-24T05:33:43;10.33;;;8.27;;
8716;SDS011;4395;48.554;8.820;2023-07-24T05:35:47;13.00;;;8.50;;
8716;SDS011;4395;48.554;8.820;2023-07-24T05:37:49;11.57;;;8.27;;
8716;SDS011;4395;48.554;8.820;2023-07-24T05:39:52;10.00;;;8.30;;
8716;SDS011;4395;48.554;8.820;2023-07-24T05:41:55;10.53;;;8.13;;
8716;SDS011;4395;48.554;8.820;2023-07-24T05:43:57;11.53;;;8.03;;
8716;SDS011;4395;48.554;8.820;2023-07-24T05:46:00;11.57;;;8.30;;
8716;SDS011;4395;48.554;8.820;2023-07-24T05:48:02;11.43;;;8.80;;
8716;SDS011;4395;48.554;8.820;2023-07-24T05:50:07;12.77;;;8.10;;
8716;SDS011;4395;48.554;8.820;2023-07-24T05:52:10;12.30;;;7.97;;
8716;SDS011;4395;48.554;8.820;2023-07-24T05:54:13;12.10;;;8.63;;
8716;SDS011;4395;48.554;8.820;2023-07-24T05:56:16;14.83;;;8.73;;
8716;SDS011;4395;48.554;8.820;2023-07-24T05:58:18;12.97;;;8.50;;
8716;SDS011;4395;48.554;8.820;2023-07-24T06:00:21;11.50;;;8.73;;
8716;SDS011;4395;48.554;8.820;2023-07-24T06:02:24;10.63;;;7.93;;
8716;SDS011;4395;48.554;8.820;2023-07-24T06:04:27;12.30;;;8.23;;
8716;SDS011;4395;48.554;8.820;2023-07-24T06:06:31;13.33;;;8.70;;
8716;SDS011;4395;48.554;8.820;2023-07-24T06:08:34;9.90;;;7.77;;
8716;SDS011;4395;48.554;8.820;2023-07-24T06:10:37;12.13;;;8.27;;
8716;SDS011;4395;48.554;8.820;2023-07-24T06:12:40;11.27;;;8.13;;
8716;SDS011;4395;48.554;8.820;2023-07-24T06:14:43;10.87;;;8.30;;
8716;SDS011;4395;48.554;8.820;2023-07-24T06:16:46;11.50;;;8.03;;
8716;SDS011;4395;48.554;8.820;2023-07-24T06:18:49;9.73;;;7.83;;
8716;SDS011;4395;48.554;8.820;2023-07-24T06:20:52;9.70;;;7.87;;
8716;SDS011;4395;48.554;8.820;2023-07-24T06:22:56;14.17;;;8.00;;
8716;SDS011;4395;48.554;8.820;2023-07-24T06:24:59;9.20;;;7.90;;
8716;SDS011;4395;48.554;8.820;2023-07-24T06:27:01;10.93;;;8.33;;
8716;SDS011;4395;48.554;8.820;2023-07-24T06:29:05;10.50;;;7.87;;
8716;SDS011;4395;48.554;8.820;2023-07-24T06:31:07;10.20;;;8.10;;
8716;SDS011;4395;48.554;8.820;2023-07-24T06:33:10;11.00;;;8.33;;
8716;SDS011;4395;48.554;8.820;2023-07-24T06:35:13;11.93;;;8.10;;
8716;SDS011;4395;48.554;8.820;2023-07-24T06:37:16;11.40;;;7.90;;
8716;SDS011;4395;48.554;8.820;2023-07-24T06:39:25;10.63;;;7.83;;
8716;SDS011;4395;48.554;8.820;2023-07-24T06:41:29;10.13;;;8.10;;
8716;SDS011;4395;48.554;8.820;2023-07-24T06:43:32;11.10;;;7.87;;
8716;SDS011;4395;48.554;8.820;2023-07-24T06:45:35;16.30;;;8.47;;
8716;SDS011;4395;48.554;8.820;2023-07-24T06:47:38;9.20;;;8.07;;
8716;SDS011;4395;48.554;8.820;2023-07-24T06:49:41;11.77;;;8.53;;
8716;SDS011;4395;48.554;8.820;2023-07-24T06:51:44;13.07;;;7.83;;
8716;SDS011;4395;48.554;8.820;2023-07-24T06:53:47;10.40;;;8.20;;
8716;SDS011;4395;48.554;8.820;2023-07-24T06:55:51;10.53;;;8.10;;
8716;SDS011;4395;48.554;8.820;2023-07-24T06:57:55;11.27;;;8.67;;
8716;SDS011;4395;48.554;8.820;2023-07-24T06:59:58;13.30;;;8.67;;
8716;SDS011;4395;48.554;8.820;2023-07-24T07:02:01;11.07;;;7.97;;
8716;SDS011;4395;48.554;8.820;2023-07-24T07:04:04;11.97;;;8.17;;
8716;SDS011;4395;48.554;8.820;2023-07-24T07:06:07;10.77;;;8.20;;
8716;SDS011;4395;48.554;8.820;2023-07-24T07:08:28;11.60;;;7.97;;
8716;SDS011;4395;48.554;8.820;2023-07-24T07:10:31;9.57;;;7.90;;
8716;SDS011;4395;48.554;8.820;2023-07-24T07:12:35;9.50;;;7.47;;
8716;SDS011;4395;48.554;8.820;2023-07-24T07:14:38;9.87;;;7.77;;
8716;SDS011;4395;48.554;8.820;2023-07-24T07:16:40;9.50;;;7.90;;
8716;SDS011;4395;48.554;8.820;2023-07-24T07:18:43;9.53;;;7.60;;
8716;SDS011;4395;48.554;8.820;2023-07-24T07:20:46;10.00;;;7.43;;
8716;SDS011;4395;48.554;8.820;2023-07-24T07:22:50;10.10;;;7.93;;
8716;SDS011;4395;48.554;8.820;2023-07-24T07:24:53;9.30;;;8.30;;
8716;SDS011;4395;48.554;8.820;2023-07-24T07:26:56;9.70;;;7.27;;
8716;SDS011;4395;48.554;8.820;2023-07-24T07:28:59;12.60;;;8.10;;
8716;SDS011;4395;48.554;8.820;2023-07-24T07:31:02;9.43;;;8.20;;
8716;SDS011;4395;48.554;8.820;2023-07-24T07:33:04;9.53;;;7.77;;
8716;SDS011;4395;48.554;8.820;2023-07-24T07:35:08;8.77;;;7.67;;
8716;SDS011;4395;48.554;8.820;2023-07-24T07:37:11;9.50;;;8.10;;
8716;SDS011;4395;48.554;8.820;2023-07-24T07:39:13;8.77;;;7.87;;
8716;SDS011;4395;48.554;8.820;2023-07-24T07:41:16;9.60;;;7.97;;
8716;SDS011;4395;48.554;8.820;2023-07-24T07:43:19;11.97;;;8.63;;
8716;SDS011;4395;48.554;8.820;2023-07-24T07:45:22;11.30;;;8.17;;
8716;SDS011;4395;48.554;8.820;2023-07-24T07:47:26;11.57;;;8.10;;
8716;SDS011;4395;48.554;8.820;2023-07-24T07:49:29;14.67;;;8.13;;
8716;SDS011;4395;48.554;8.820;2023-07-24T07:51:31;10.30;;;7.43;;
8716;SDS011;4395;48.554;8.820;2023-07-24T07:53:34;13.37;;;6.47;;
8716;SDS011;4395;48.554;8.820;2023-07-24T07:55:37;8.17;;;6.37;;
8716;SDS011;4395;48.554;8.820;2023-07-24T07:57:40;11.53;;;6.00;;
8716;SDS011;4395;48.554;8.820;2023-07-24T07:59:42;10.33;;;5.83;;
8716;SDS011;4395;48.554;8.820;2023-07-24T08:01:46;5.53;;;4.27;;
8716;SDS011;4395;48.554;8.820;2023-07-24T08:03:48;6.97;;;4.73;;
8716;SDS011;4395;48.554;8.820;2023-07-24T08:05:51;6.17;;;4.60;;
8716;SDS011;4395;48.554;8.820;2023-07-24T08:07:58;5.97;;;4.33;;
8716;SDS011;4395;48.554;8.820;2023-07-24T08:10:01;6.30;;;5.10;;
8716;SDS011;4395;48.554;8.820;2023-07-24T08:12:05;7.27;;;5.40;;
8716;SDS011;4395;48.554;8.820;2023-07-24T08:14:09;8.40;;;5.67;;
8716;SDS011;4395;48.554;8.820;2023-07-24T08:16:12;7.33;;;5.37;;
8716;SDS011;4395;48.554;8.820;2023-07-24T08:18:20;6.97;;;5.07;;
8716;SDS011;4395;48.554;8.820;2023-07-24T08:20:23;6.20;;;4.93;;
8716;SDS011;4395;48.554;8.820;2023-07-24T08:22:25;7.03;;;5.07;;
8716;SDS011;4395;48.554;8.820;2023-07-24T08:24:28;7.80;;;5.60;;
8716;SDS011;4395;48.554;8.820;2023-07-24T08:26:31;7.47;;;5.03;;
8716;SDS011;4395;48.554;8.820;2023-07-24T08:28:34;5.70;;;4.90;;
8716;SDS011;4395;48.554;8.820;2023-07-24T08:30:37;7.23;;;4.90;;
8716;SDS011;4395;48.554;8.820;2023-07-24T08:32:40;8.03;;;4.93;;
8716;SDS011;4395;48.554;8.820;2023-07-24T08:34:44;6.23;;;5.13;;
8716;SDS011;4395;48.554;8.820;2023-07-24T08:36:46;8.17;;;4.97;;
8716;SDS011;4395;48.554;8.820;2023-07-24T08:38:48;8.50;;;5.10;;
8716;SDS011;4395;48.554;8.820;2023-07-24T08:40:59;6.03;;;4.60;;
8716;SDS011;4395;48.554;8.820;2023-07-24T08:43:02;5.67;;;5.00;;
8716;SDS011;4395;48.554;8.820;2023-07-24T08:45:08;5.97;;;4.70;;
8716;SDS011;4395;48.554;8.820;2023-07-24T08:47:13;7.27;;;4.80;;
8716;SDS011;4395;48.554;8.820;2023-07-24T08:49:17;6.03;;;5.00;;
8716;SDS011;4395;48.554;8.820;2023-07-24T08:51:22;6.60;;;5.30;;
8716;SDS011;4395;48.554;8.820;2023-07-24T08:53:26;5.53;;;5.03;;
8716;SDS011;4395;48.554;8.820;2023-07-24T08:55:31;7.37;;;5.50;;
8716;SDS011;4395;48.554;8.820;2023-07-24T08:57:34;6.67;;;5.40;;
8716;SDS011;4395;48.554;8.820;2023-07-24T08:59:37;6.43;;;5.57;;
8716;SDS011;4395;48.554;8.820;2023-07-24T09:01:40;6.70;;;5.63;;
8716;SDS011;4395;48.554;8.820;2023-07-24T09:03:42;6.47;;;5.53;;
8716;SDS011;4395;48.554;8.820;2023-07-24T09:05:46;6.53;;;5.57;;
8716;SDS011;4395;48.554;8.820;2023-07-24T09:07:50;6.53;;;5.80;;
8716;SDS011;4395;48.554;8.820;2023-07-24T09:09:54;6.63;;;5.90;;
8716;SDS011;4395;48.554;8.820;2023-07-24T09:11:57;6.60;;;5.90;;
8716;SDS011;4395;48.554;8.820;2023-07-24T09:14:00;8.00;;;6.00;;
8716;SDS011;4395;48.554;8.820;2023-07-24T09:16:20;9.37;;;6.17;;
8716;SDS011;4395;48.554;8.820;2023-07-24T09:18:24;7.67;;;6.07;;
8716;SDS011;4395;48.554;8.820;2023-07-24T09:20:37;6.87;;;6.13;;
8716;SDS011;4395;48.554;8.820;2023-07-24T09:22:47;7.37;;;6.37;;
8716;SDS011;4395;48.554;8.820;2023-07-24T09:25:12;10.00;;;5.90;;
8716;SDS011;4395;48.554;8.820;2023-07-24T09:27:15;7.80;;;5.80;;
8716;SDS011;4395;48.554;8.820;2023-07-24T09:29:18;7.63;;;5.90;;
8716;SDS011;4395;48.554;8.820;2023-07-24T09:31:22;8.23;;;6.07;;
8716;SDS011;4395;48.554;8.820;2023-07-24T09:33:37;7.50;;;6.30;;
8716;SDS011;4395;48.554;8.820;2023-07-24T09:35:41;7.20;;;5.90;;
8716;SDS011;4395;48.554;8.820;2023-07-24T09:37:44;10.33;;;6.30;;
8716;SDS011;4395;48.554;8.820;2023-07-24T09:39:47;8.77;;;6.33;;
8716;SDS011;4395;48.554;8.820;2023-07-24T09:41:51;9.10;;;6.47;;
8716;SDS011;4395;48.554;8.820;2023-07-24T09:43:57;7.03;;;6.23;;
8716;SDS011;4395;48.554;8.820;2023-07-24T09:46:00;6.63;;;5.80;;
8716;SDS011;4395;48.554;8.820;2023-07-24T09:48:03;7.57;;;6.33;;
8716;SDS011;4395;48.554;8.820;2023-07-24T09:50:32;8.03;;;6.57;;
8716;SDS011;4395;48.554;8.820;2023-07-24T09:52:35;9.07;;;6.73;;
8716;SDS011;4395;48.554;8.820;2023-07-24T09:54:44;10.73;;;6.10;;
8716;SDS011;4395;48.554;8.820;2023-07-24T09:56:56;9.07;;;6.70;;
8716;SDS011;4395;48.554;8.820;2023-07-24T09:59:21;9.23;;;6.20;;
8716;SDS011;4395;48.554;8.820;2023-07-24T10:01:25;9.07;;;6.67;;
8716;SDS011;4395;48.554;8.820;2023-07-24T10:03:29;10.67;;;6.87;;
8716;SDS011;4395;48.554;8.820;2023-07-24T10:05:32;8.03;;;6.30;;
8716;SDS011;4395;48.554;8.820;2023-07-24T10:07:35;11.07;;;7.13;;
8716;SDS011;4395;48.554;8.820;2023-07-24T10:09:38;11.97;;;7.67;;
8716;SDS011;4395;48.554;8.820;2023-07-24T10:11:42;8.37;;;7.20;;
8716;SDS011;4395;48.554;8.820;2023-07-24T10:13:46;8.67;;;7.10;;
8716;SDS011;4395;48.554;8.820;2023-07-24T10:15:49;7.57;;;6.67;;
8716;SDS011;4395;48.554;8.820;2023-07-24T10:18:00;10.63;;;7.20;;
8716;SDS011;4395;48.554;8.820;2023-07-24T10:20:04;8.07;;;7.20;;
8716;SDS011;4395;48.554;8.820;2023-07-24T10:22:08;8.83;;;6.77;;
8716;SDS011;4395;48.554;8.820;2023-07-24T10:24:11;7.50;;;6.70;;
8716;SDS011;4395;48.554;8.820;2023-07-24T10:26:25;7.77;;;6.13;;
8716;SDS011;4395;48.554;8.820;2023-07-24T10:28:30;6.67;;;5.87;;
8716;SDS011;4395;48.554;8.820;2023-07-24T10:30:35;10.17;;;6.83;;
8716;SDS011;4395;48.554;8.820;2023-07-24T10:32:44;9.17;;;6.43;;
8716;SDS011;4395;48.554;8.820;2023-07-24T10:34:55;9.57;;;6.47;;
8716;SDS011;4395;48.554;8.820;2023-07-24T10:37:02;11.43;;;7.07;;
8716;SDS011;4395;48.554;8.820;2023-07-24T10:39:12;11.97;;;7.13;;
8716;SDS011;4395;48.554;8.820;2023-07-24T10:41:17;9.20;;;7.07;;
8716;SDS011;4395;48.554;8.820;2023-07-24T10:43:19;10.73;;;7.30;;
8716;SDS011;4395;48.554;8.820;2023-07-24T10:45:22;10.23;;;6.87;;
8716;SDS011;4395;48.554;8.820;2023-07-24T10:47:27;10.17;;;7.03;;
8716;SDS011;4395;48.554;8.820;2023-07-24T10:49:29;9.80;;;7.13;;
8716;SDS011;4395;48.554;8.820;2023-07-24T10:51:32;8.80;;;6.87;;
8716;SDS011;4395;48.554;8.820;2023-07-24T10:53:38;7.70;;;6.40;;
8716;SDS011;4395;48.554;8.820;2023-07-24T10:55:48;10.17;;;7.67;;
8716;SDS011;4395;48.554;8.820;2023-07-24T10:57:53;7.60;;;6.00;;
8716;SDS011;4395;48.554;8.820;2023-07-24T10:59:56;8.03;;;6.37;;
8716;SDS011;4395;48.554;8.820;2023-07-24T11:01:59;9.43;;;6.70;;
8716;SDS011;4395;48.554;8.820;2023-07-24T11:04:03;8.43;;;6.50;;
8716;SDS011;4395;48.554;8.820;2023-07-24T11:06:10;9.50;;;6.70;;
8716;SDS011;4395;48.554;8.820;2023-07-24T11:08:15;6.63;;;5.97;;
8716;SDS011;4395;48.554;8.820;2023-07-24T11:10:20;8.47;;;6.80;;
8716;SDS011;4395;48.554;8.820;2023-07-24T11:12:24;9.97;;;6.70;;
8716;SDS011;4395;48.554;8.820;2023-07-24T11:14:31;7.43;;;6.23;;
8716;SDS011;4395;48.554;8.820;2023-07-24T11:16:34;7.17;;;6.37;;
8716;SDS011;4395;48.554;8.820;2023-07-24T11:18:44;9.37;;;6.30;;
8716;SDS011;4395;48.554;8.820;2023-07-24T11:20:56;8.47;;;6.77;;
8716;SDS011;4395;48.554;8.820;2023-07-24T11:22:59;10.37;;;5.97;;
8716;SDS011;4395;48.554;8.820;2023-07-24T11:25:02;7.23;;;6.53;;
8716;SDS011;4395;48.554;8.820;2023-07-24T11:27:08;8.27;;;6.60;;
8716;SDS011;4395;48.554;8.820;2023-07-24T11:29:12;8.03;;;6.30;;
8716;SDS011;4395;48.554;8.820;2023-07-24T11:31:15;9.13;;;6.90;;
8716;SDS011;4395;48.554;8.820;2023-07-24T11:33:21;8.07;;;6.20;;
8716;SDS011;4395;48.554;8.820;2023-07-24T11:35:25;7.73;;;6.53;;
8716;SDS011;4395;48.554;8.820;2023-07-24T11:37:29;8.40;;;6.67;;
8716;SDS011;4395;48.554;8.820;2023-07-24T11:39:33;7.77;;;6.40;;
8716;SDS011;4395;48.554;8.820;2023-07-24T11:41:36;7.40;;;6.57;;
8716;SDS011;4395;48.554;8.820;2023-07-24T11:43:44;8.17;;;6.67;;
8716;SDS011;4395;48.554;8.820;2023-07-24T11:45:48;7.43;;;6.23;;
8716;SDS011;4395;48.554;8.820;2023-07-24T11:47:53;6.97;;;6.20;;
8716;SDS011;4395;48.554;8.820;2023-07-24T11:49:58;7.63;;;6.17;;
8716;SDS011;4395;48.554;8.820;2023-07-24T11:52:02;7.97;;;6.40;;
8716;SDS011;4395;48.554;8.820;2023-07-24T11:54:08;8.37;;;6.40;;
8716;SDS011;4395;48.554;8.820;2023-07-24T11:56:14;6.73;;;6.03;;
8716;SDS011;4395;48.554;8.820;2023-07-24T11:58:19;8.13;;;7.20;;
8716;SDS011;4395;48.554;8.820;2023-07-24T12:00:23;10.07;;;8.90;;
8716;SDS011;4395;48.554;8.820;2023-07-24T12:02:25;7.17;;;6.47;;
8716;SDS011;4395;48.554;8.820;2023-07-24T12:04:30;6.83;;;5.87;;
8716;SDS011;4395;48.554;8.820;2023-07-24T12:06:33;6.83;;;6.17;;
8716;SDS011;4395;48.554;8.820;2023-07-24T12:08:36;6.63;;;5.87;;
8716;SDS011;4395;48.554;8.820;2023-07-24T12:10:41;7.17;;;6.00;;
8716;SDS011;4395;48.554;8.820;2023-07-24T12:12:45;7.80;;;5.87;;
8716;SDS011;4395;48.554;8.820;2023-07-24T12:14:49;6.70;;;6.10;;
8716;SDS011;4395;48.554;8.820;2023-07-24T12:16:59;8.47;;;5.70;;
8716;SDS011;4395;48.554;8.820;2023-07-24T12:19:03;6.33;;;5.40;;
8716;SDS011;4395;48.554;8.820;2023-07-24T12:21:07;5.90;;;5.40;;
8716;SDS011;4395;48.554;8.820;2023-07-24T12:23:10;6.50;;;5.60;;
8716;SDS011;4395;48.554;8.820;2023-07-24T12:25:12;6.47;;;5.87;;
8716;SDS011;4395;48.554;8.820;2023-07-24T12:27:16;9.03;;;6.03;;
8716;SDS011;4395;48.554;8.820;2023-07-24T12:29:19;6.63;;;5.60;;
8716;SDS011;4395;48.554;8.820;2023-07-24T12:31:21;5.70;;;5.20;;
8716;SDS011;4395;48.554;8.820;2023-07-24T12:33:24;8.00;;;5.33;;
8716;SDS011;4395;48.554;8.820;2023-07-24T12:35:27;9.80;;;5.77;;
8716;SDS011;4395;48.554;8.820;2023-07-24T12:37:30;5.50;;;4.93;;
8716;SDS011;4395;48.554;8.820;2023-07-24T12:39:33;5.60;;;5.10;;
8716;SDS011;4395;48.554;8.820;2023-07-24T12:41:35;5.13;;;4.63;;
8716;SDS011;4395;48.554;8.820;2023-07-24T12:43:39;5.30;;;4.80;;
8716;SDS011;4395;48.554;8.820;2023-07-24T12:45:42;4.83;;;4.43;;
8716;SDS011;4395;48.554;8.820;2023-07-24T12:47:45;5.23;;;4.73;;